Maran Canopus — SXUQ — position and weather

sailwx.info

Track history (hours):
 
Tides and Currents Weather Stations Pressure Air Temp Water Temp Dewpoint Dewpoint Depression Visibility Wind Speed Wind Dir Waves Ship Positions

Maran Canopus

Last reported at 2018-Feb-10 06:08 UTC. Time now 2018-Feb-25 08:19 UTC.
Position N 01°17' E 103°22'.
Warning: this ship's position is 15 days out of date.

Length 333 m; draft 11.4 m.

Type: Ship (hazmat cat D). MMSI: 240677000.

Date/timePositionNaut miles runAvg speedWind from/ knotsBaromVisibWave heightAir tempDewpointWater temp
2018-Feb-10 06:08N 01°17' E 103°22'315.9
2018-Feb-10 05:59N 01°15' E 103°24'714.2
2018-Feb-10 05:30N 01°13' E 103°31'5 9.3
2018-Feb-10 04:59N 01°12' E 103°35'611.7
2018-Feb-10 04:30N 01°10' E 103°40'5 8.8
2018-Feb-10 03:59N 01°09' E 103°45'4 8.1
2018-Feb-10 03:30N 01°11' E 103°48'5 9.1
2018-Feb-10 03:00N 01°12' E 103°53'4 7.5
2018-Feb-10 02:30N 01°14' E 103°56'5 9.5
2018-Feb-10 02:00N 01°15' E 104°00'4 6.9
2018-Feb-10 01:30N 01°17' E 104°03'2 3.1
2018-Feb-10 01:00N 01°18' E 104°05'0 0.1
2018-Feb-09 23:10N 01°18' E 104°04'1 0.0
2018-Feb-09 01:00N 01°17' E 104°05'  
2018-Feb-03 00:11N 22°30' E 119°45'412.2
2018-Feb-02 23:49N 22°33' E 119°47'411.8
2018-Feb-02 23:30N 22°37' E 119°47'611.7
2018-Feb-02 23:00N 22°43' E 119°48'611.9
2018-Feb-02 22:30N 22°49' E 119°48'612.6
2018-Feb-02 22:00N 22°55' E 119°49'612.8
2018-Feb-02 21:30N 23°02' E 119°50'813.1
2018-Feb-02 20:53N 23°10' E 119°50'614.1
2018-Feb-02 20:30N 23°15' E 119°50'714.5
2018-Feb-02 20:00N 23°22' E 119°49'1515.0
2018-Feb-02 19:00N 23°37' E 119°49'714.3
2018-Feb-02 18:30N 23°44' E 119°51'713.7
2018-Feb-02 18:00N 23°51' E 119°52'  
Track history (hours):
 
Tides and Currents Weather Stations Pressure Air Temp Water Temp Dewpoint Dewpoint Depression Visibility Wind Speed Wind Dir Waves Ship Positions

Maran Canopus

Last reported at 2018-Feb-10 06:08 UTC. Time now 2018-Feb-25 08:19 UTC.
Position N 01°17' E 103°22'.
Warning: this ship's position is 15 days out of date.

Length 333 m; draft 11.4 m.

Type: Ship (hazmat cat D). MMSI: 240677000.

Date/timePositionNaut miles runAvg speedWind from/ knotsBaromVisibWave heightAir tempDewpointWater temp
2018-Feb-10 06:08N 01°17' E 103°22'315.9
2018-Feb-10 05:59N 01°15' E 103°24'714.2
2018-Feb-10 05:30N 01°13' E 103°31'5 9.3
2018-Feb-10 04:59N 01°12' E 103°35'611.7
2018-Feb-10 04:30N 01°10' E 103°40'5 8.8
2018-Feb-10 03:59N 01°09' E 103°45'4 8.1
2018-Feb-10 03:30N 01°11' E 103°48'5 9.1
2018-Feb-10 03:00N 01°12' E 103°53'4 7.5
2018-Feb-10 02:30N 01°14' E 103°56'5 9.5
2018-Feb-10 02:00N 01°15' E 104°00'4 6.9
2018-Feb-10 01:30N 01°17' E 104°03'2 3.1
2018-Feb-10 01:00N 01°18' E 104°05'0 0.1
2018-Feb-09 23:10N 01°18' E 104°04'1 0.0
2018-Feb-09 01:00N 01°17' E 104°05'  
2018-Feb-03 00:11N 22°30' E 119°45'412.2
2018-Feb-02 23:49N 22°33' E 119°47'411.8
2018-Feb-02 23:30N 22°37' E 119°47'611.7
2018-Feb-02 23:00N 22°43' E 119°48'611.9
2018-Feb-02 22:30N 22°49' E 119°48'612.6
2018-Feb-02 22:00N 22°55' E 119°49'612.8
2018-Feb-02 21:30N 23°02' E 119°50'813.1
2018-Feb-02 20:53N 23°10' E 119°50'614.1
2018-Feb-02 20:30N 23°15' E 119°50'714.5
2018-Feb-02 20:00N 23°22' E 119°49'1515.0
2018-Feb-02 19:00N 23°37' E 119°49'714.3
2018-Feb-02 18:30N 23°44' E 119°51'713.7
2018-Feb-02 18:00N 23°51' E 119°52'  

Dump ship's entire track history